Time;durP1;ratioP1;P1;durP2;ratioP2;P2;SDS_P1;SDS_P2;PMS_P1;PMS_P2;Temp;Humidity;BMP_temperature;BMP_pressure;BME280_temperature;BME280_humidity;BME280_pressure;Samples;Min_cycle;Max_cycle;Signal;HPM_P1;HPM_P2
2021/12/05 00:23:26;;;;;;;;;;;;;;;18.23;60.93;100439.78;5066556;28;1621;-40
2021/12/05 00:25:55;;;;;;;;;;;;;;;18.07;61.40;100454.50;5066781;28;1006;-40
2021/12/05 00:31:43;;;;;;;;;;;;;;;17.92;61.92;100450.53;5058096;28;1748;-40
2021/12/05 00:57:33;;;;;;;;;;;;;;;18.02;61.76;100450.56;4972550;28;1914;-40
2021/12/05 01:03:13;;;;;;;;;;;;;;;17.93;61.88;100441.53;4992678;28;1869;-40
2021/12/05 01:11:44;;;;;;;;;;;;;;;17.92;61.93;100441.66;4984066;28;1580;-40
2021/12/05 01:16:57;;;;;;;;;;;;;;;18.24;61.11;100420.91;5043207;28;1905;-40
2021/12/05 01:19:29;;;;;;;;;;;;;;;18.24;61.05;100420.03;5048726;28;1932;-40
2021/12/05 01:21:59;;;;;;;;;;;;;;;18.26;60.93;100410.03;5046205;28;1925;-40
2021/12/05 01:24:40;;;;;;;;;;;;;;;18.26;61.13;100426.09;5041556;28;1942;-40
2021/12/05 01:27:21;;;;;;;;;;;;;;;18.04;61.48;100411.13;5052859;28;1824;-40
2021/12/05 01:30:00;;;;;;;;;;;;;;;17.94;61.98;100397.72;5034244;28;1605;-40
2021/12/05 01:32:41;;;;;;;;;;;;;;;17.95;61.97;100411.97;5029909;28;1790;-40
2021/12/05 01:35:18;;;;;;;;;;;;;;;17.95;62.05;100411.97;5036174;28;1717;-40
2021/12/05 01:38:00;;;;;;;;;;;;;;;17.91;61.85;100398.03;5034200;28;2012;-40
2021/12/05 02:02:59;;;;;;;;;;;;;;;17.93;62.30;100393.38;5053935;28;2689;-40
2021/12/05 02:11:10;;;;;;;;;;;;;;;17.95;62.14;100393.25;5076336;28;990;-40
2021/12/05 02:29:20;;;;;;;;;;;;;;;18.20;61.91;100389.19;5058765;28;1906;-40
2021/12/05 02:33:57;;;;;;;;;;;;;;;17.98;62.13;100390.28;4983493;28;1672;-40
2021/12/05 02:39:26;;;;;;;;;;;;;;;18.00;62.22;100394.50;5027728;28;1869;-40
2021/12/05 02:41:55;;;;;;;;;;;;;;;18.00;62.11;100396.34;5077066;28;1262;-40
2021/12/05 02:44:24;;;;;;;;;;;;;;;17.93;62.15;100397.88;5066996;28;1514;-40
2021/12/05 02:47:07;;;;;;;;;;;;;;;18.19;61.93;100399.06;5070486;28;1799;-40
2021/12/05 02:49:37;;;;;;;;;;;;;;;18.33;61.35;100405.00;5066968;28;1839;-39
2021/12/05 02:52:06;;;;;;;;;;;;;;;18.32;61.55;100393.41;5069156;28;1884;-40
2021/12/05 02:54:41;;;;;;;;;;;;;;;18.29;61.27;100393.72;5071142;28;1892;-39
2021/12/05 02:57:10;;;;;;;;;;;;;;;18.09;62.04;100391.00;5039814;28;1993;-40
2021/12/05 02:59:45;;;;;;;;;;;;;;;18.02;61.98;100408.59;5069912;28;1571;-40
2021/12/05 03:02:14;;;;;;;;;;;;;;;17.97;62.27;100397.47;5030536;23;3550;-73
2021/12/05 03:04:45;;;;;;;;;;;;;;;17.91;62.28;100381.97;5015680;28;1445;-64
2021/12/05 03:07:12;;;;;;;;;;;;;;;17.99;62.53;100381.28;5014215;28;1485;-64
2021/12/05 03:09:41;;;;;;;;;;;;;;;18.08;61.99;100397.34;5009473;28;1736;-74
2021/12/05 03:12:10;;;;;;;;;;;;;;;18.13;62.13;100388.91;5009336;28;1355;-73
2021/12/05 03:14:37;;;;;;;;;;;;;;;18.17;61.80;100387.63;5015005;28;1185;-72
2021/12/05 03:17:04;;;;;;;;;;;;;;;18.46;61.22;100384.13;5014384;28;1906;-71
2021/12/05 03:19:31;;;;;;;;;;;;;;;18.32;61.52;100376.50;5015080;28;1410;-64
2021/12/05 03:21:57;;;;;;;;;;;;;;;18.16;61.71;100372.56;5014172;28;1749;-64
2021/12/05 03:24:24;;;;;;;;;;;;;;;18.11;61.91;100388.19;5014685;28;1489;-73
2021/12/05 03:26:53;;;;;;;;;;;;;;;18.16;61.60;100387.78;5015949;28;1111;-73
2021/12/05 03:29:20;;;;;;;;;;;;;;;18.14;61.84;100385.22;5015008;28;1766;-64
2021/12/05 03:31:47;;;;;;;;;;;;;;;18.14;61.51;100374.53;5007417;28;1650;-64
2021/12/05 03:34:15;;;;;;;;;;;;;;;18.17;61.85;100381.44;5014877;28;1714;-64
2021/12/05 03:36:43;;;;;;;;;;;;;;;18.22;61.62;100397.91;5014341;28;1979;-67
2021/12/05 03:39:10;;;;;;;;;;;;;;;18.23;61.78;100379.06;5008951;28;1552;-72
2021/12/05 03:41:38;;;;;;;;;;;;;;;18.24;61.46;100395.94;5014027;28;1340;-72
2021/12/05 03:44:07;;;;;;;;;;;;;;;18.23;61.65;100391.59;5013372;28;1627;-73
2021/12/05 03:46:34;;;;;;;;;;;;;;;18.18;61.50;100392.00;5014077;28;1714;-64
2021/12/05 03:49:03;;;;;;;;;;;;;;;18.14;61.69;100401.28;5013390;28;1225;-64
2021/12/05 03:51:30;;;;;;;;;;;;;;;18.13;61.69;100394.25;5012795;28;1567;-73
2021/12/05 03:53:57;;;;;;;;;;;;;;;18.18;61.54;100397.34;5013418;28;1245;-72
2021/12/05 03:56:24;;;;;;;;;;;;;;;18.13;61.64;100390.75;5015162;28;1033;-64
2021/12/05 03:58:50;;;;;;;;;;;;;;;18.11;61.69;100393.56;5014554;28;1906;-65
2021/12/05 04:01:19;;;;;;;;;;;;;;;18.17;61.63;100398.34;5012875;28;1378;-64
2021/12/05 04:03:47;;;;;;;;;;;;;;;18.16;61.71;100407.34;5014764;28;1426;-65
2021/12/05 04:06:15;;;;;;;;;;;;;;;18.18;61.63;100410.72;5009845;28;1410;-64
2021/12/05 04:08:41;;;;;;;;;;;;;;;18.16;61.55;100417.22;5007367;28;1567;-72
2021/12/05 04:11:10;;;;;;;;;;;;;;;18.08;61.88;100404.50;5015255;28;1024;-73
2021/12/05 04:13:36;;;;;;;;;;;;;;;18.04;61.91;100411.97;5014475;28;1722;-65
2021/12/05 04:16:04;;;;;;;;;;;;;;;18.17;61.65;100408.22;5014123;28;1479;-64
2021/12/05 04:18:33;;;;;;;;;;;;;;;18.18;61.43;100410.72;5013699;28;1906;-73
2021/12/05 04:20:59;;;;;;;;;;;;;;;18.21;61.29;100402.44;5014261;28;1455;-65
2021/12/05 04:23:26;;;;;;;;;;;;;;;18.22;61.26;100417.53;5005525;28;1411;-64
2021/12/05 04:25:53;;;;;;;;;;;;;;;18.21;61.58;100406.94;5014412;28;1265;-72
2021/12/05 04:28:20;;;;;;;;;;;;;;;18.12;61.75;100391.72;5005715;28;1726;-64
2021/12/05 04:30:47;;;;;;;;;;;;;;;18.16;61.45;100399.31;5013620;28;1567;-72
2021/12/05 04:33:14;;;;;;;;;;;;;;;18.17;61.42;100406.38;5011429;28;1603;-64
2021/12/05 04:35:42;;;;;;;;;;;;;;;18.05;61.73;100423.53;5013719;28;1442;-64
2021/12/05 04:38:08;;;;;;;;;;;;;;;18.12;61.70;100427.34;5013642;28;1906;-72
2021/12/05 04:40:35;;;;;;;;;;;;;;;18.19;61.30;100427.66;5010134;28;1332;-64
2021/12/05 04:43:02;;;;;;;;;;;;;;;18.18;62.00;100420.59;5002538;28;1549;-71
2021/12/05 04:45:31;;;;;;;;;;;;;;;18.15;61.52;100408.34;5013735;28;1438;-72
2021/12/05 04:47:58;;;;;;;;;;;;;;;18.19;60.87;100417.78;5013458;28;1622;-64
2021/12/05 04:50:26;;;;;;;;;;;;;;;18.14;61.64;100416.50;5013342;28;1473;-72
2021/12/05 04:52:55;;;;;;;;;;;;;;;18.12;61.33;100421.97;5013255;28;1383;-72
2021/12/05 04:55:22;;;;;;;;;;;;;;;18.17;61.77;100418.91;5014098;28;1052;-64
2021/12/05 04:57:49;;;;;;;;;;;;;;;18.18;61.46;100423.25;5013212;28;1975;-64
2021/12/05 05:00:18;;;;;;;;;;;;;;;18.24;61.30;100428.94;5014353;28;1031;-64
2021/12/05 05:02:44;;;;;;;;;;;;;;;18.24;61.44;100431.59;5011398;28;1455;-71
2021/12/05 05:05:12;;;;;;;;;;;;;;;18.20;61.53;100424.81;5012984;28;1572;-64
2021/12/05 05:07:41;;;;;;;;;;;;;;;18.25;61.48;100422.56;5013128;28;1587;-64
2021/12/05 05:10:12;;;;;;;;;;;;;;;18.24;61.19;100422.72;5011047;28;1446;-72
2021/12/05 05:12:39;;;;;;;;;;;;;;;18.19;61.43;100431.16;5009690;28;1485;-64
2021/12/05 05:15:06;;;;;;;;;;;;;;;18.20;61.45;100435.50;5010233;28;1640;-64
2021/12/05 05:17:40;;;;;;;;;;;;;;;18.14;61.26;100428.03;5007757;28;1906;-73
2021/12/05 05:20:18;;;;;;;;;;;;;;;18.15;61.31;100439.63;5010597;28;1371;-64
2021/12/05 05:22:52;;;;;;;;;;;;;;;18.28;60.86;100430.34;5011875;28;1430;-75
2021/12/05 05:28:12;;;;;;;;;;;;;;;18.55;60.74;100427.97;4988783;28;1556;-74
2021/12/05 05:30:53;;;;;;;;;;;;;;;18.56;60.14;100417.13;5008993;28;1398;-70
2021/12/05 05:44:34;;;;;;;;;;;;;;;18.34;61.27;100417.38;5012217;28;1683;-64
2021/12/05 05:47:06;;;;;;;;;;;;;;;18.43;60.78;100413.88;5013280;28;1767;-65
2021/12/05 05:52:13;;;;;;;;;;;;;;;18.41;61.02;100414.00;5009105;28;1578;-65
2021/12/05 05:54:49;;;;;;;;;;;;;;;18.40;61.10;100416.81;5012613;28;1718;-64
2021/12/05 05:57:23;;;;;;;;;;;;;;;18.38;60.67;100425.00;5012903;28;1923;-73
2021/12/05 05:59:56;;;;;;;;;;;;;;;18.39;60.70;100417.81;5012689;28;1517;-65
2021/12/05 06:05:20;;;;;;;;;;;;;;;18.37;60.83;100446.56;5012593;28;1477;-64
2021/12/05 06:07:47;;;;;;;;;;;;;;;18.37;60.79;100450.06;5012698;28;1458;-64
2021/12/05 06:10:17;;;;;;;;;;;;;;;18.35;60.71;100456.56;5013028;28;1151;-75
2021/12/05 06:12:46;;;;;;;;;;;;;;;18.38;61.10;100462.47;5012404;28;1595;-74
2021/12/05 06:15:14;;;;;;;;;;;;;;;18.41;60.80;100472.91;5012621;28;1619;-74
2021/12/05 06:17:41;;;;;;;;;;;;;;;18.43;60.53;100459.38;5011907;28;1975;-64
2021/12/05 06:20:08;;;;;;;;;;;;;;;18.42;61.29;100447.84;5012396;28;1564;-65
2021/12/05 06:22:35;;;;;;;;;;;;;;;18.42;61.06;100438.94;5012791;28;1029;-73
2021/12/05 06:25:02;;;;;;;;;;;;;;;18.44;61.10;100432.47;5012812;28;996;-65
2021/12/05 06:27:28;;;;;;;;;;;;;;;18.39;61.26;100436.56;5012365;28;1514;-64
2021/12/05 06:30:00;;;;;;;;;;;;;;;18.43;60.85;100449.50;5011995;28;1575;-64
2021/12/05 06:38:08;;;;;;;;;;;;;;;18.43;60.49;100460.22;5006711;28;1980;-65
2021/12/05 06:40:49;;;;;;;;;;;;;;;18.42;61.20;100455.00;5009086;28;963;-75
2021/12/05 06:46:03;;;;;;;;;;;;;;;18.45;61.24;100454.72;5010662;28;1658;-65
2021/12/05 06:48:29;;;;;;;;;;;;;;;18.45;60.89;100452.88;5011664;28;1738;-65
2021/12/05 06:50:56;;;;;;;;;;;;;;;18.41;61.10;100435.41;5011950;28;1589;-65
2021/12/05 06:53:23;;;;;;;;;;;;;;;18.56;60.56;100443.03;5009146;28;1473;-62
2021/12/05 06:55:49;;;;;;;;;;;;;;;18.50;61.12;100465.84;5012732;28;1293;-62
2021/12/05 06:58:16;;;;;;;;;;;;;;;18.36;61.55;100459.06;5007612;28;1942;-66
2021/12/05 07:00:42;;;;;;;;;;;;;;;18.54;61.08;100461.91;5014645;28;1102;-66
2021/12/05 07:03:11;;;;;;;;;;;;;;;18.55;61.02;100474.31;5012931;28;1481;-73
2021/12/05 07:05:49;;;;;;;;;;;;;;;18.54;61.52;100483.31;5012821;28;1422;-63
2021/12/05 07:08:17;;;;;;;;;;;;;;;18.50;61.57;100492.63;5012378;28;1390;-74
2021/12/05 07:10:50;;;;;;;;;;;;;;;18.51;61.29;100488.13;5015416;28;1431;-78
2021/12/05 07:16:21;;;;;;;;;;;;;;;18.39;61.82;100472.19;5015333;28;1536;-70
2021/12/05 07:19:04;;;;;;;;;;;;;;;18.36;61.03;100480.47;5015280;28;1910;-80
2021/12/05 07:21:39;;;;;;;;;;;;;;;18.49;61.13;100474.88;5012069;28;1467;-74
2021/12/05 07:24:13;;;;;;;;;;;;;;;18.64;60.90;100480.66;5010102;28;1614;-61
2021/12/05 07:27:11;;;;;;;;;;;;;;;18.55;61.16;100465.44;5015186;28;980;-62
2021/12/05 07:40:36;;;;;;;;;;;;;;;18.68;60.49;100474.91;5009601;28;1328;-64
2021/12/05 07:43:04;;;;;;;;;;;;;;;18.61;60.11;100457.69;5014368;28;1653;-66
2021/12/05 07:45:35;;;;;;;;;;;;;;;18.64;60.56;100462.78;5012005;28;1592;-70
2021/12/05 07:48:08;;;;;;;;;;;;;;;18.67;60.96;100459.81;5011734;28;1548;-67
2021/12/05 07:50:44;;;;;;;;;;;;;;;18.71;60.70;100443.47;5014396;28;1446;-72
2021/12/05 07:53:18;;;;;;;;;;;;;;;18.73;60.45;100444.16;5006708;28;1525;-72
2021/12/05 07:55:47;;;;;;;;;;;;;;;18.68;60.91;100445.44;5014179;28;1328;-67
2021/12/05 07:58:27;;;;;;;;;;;;;;;18.69;60.59;100438.25;5004660;28;1969;-67
2021/12/05 08:01:02;;;;;;;;;;;;;;;18.73;60.51;100433.47;5012826;28;1445;-75
2021/12/05 08:14:38;;;;;;;;;;;;;;;18.58;60.70;100439.25;4971900;28;1204;-63
2021/12/05 08:17:06;;;;;;;;;;;;;;;18.50;60.76;100428.38;4974068;28;1416;-62
2021/12/05 08:19:33;;;;;;;;;;;;;;;18.56;60.15;100453.75;4974965;28;1969;-62
2021/12/05 08:22:01;;;;;;;;;;;;;;;18.58;60.55;100443.72;4973465;28;1466;-62
2021/12/05 08:24:32;;;;;;;;;;;;;;;18.65;59.90;100443.03;4973034;28;1674;-62
2021/12/05 08:27:00;;;;;;;;;;;;;;;18.61;59.97;100463.03;4974792;28;1499;-76
2021/12/05 08:29:33;;;;;;;;;;;;;;;18.59;60.85;100459.66;4972107;28;1296;-75
2021/12/05 08:32:13;;;;;;;;;;;;;;;18.66;60.62;100455.44;4974287;28;1743;-62
2021/12/05 08:34:58;;;;;;;;;;;;;;;18.81;59.80;100465.78;4974547;28;1466;-63
2021/12/05 08:38:01;;;;;;;;;;;;;;;18.87;59.31;100451.81;4975167;28;1200;-71
2021/12/05 08:41:14;;;;;;;;;;;;;;;18.83;59.75;100450.41;4975365;28;1140;-70
2021/12/05 08:44:10;;;;;;;;;;;;;;;18.69;60.13;100465.03;4973391;28;1411;-69
2021/12/05 09:22:53;;;;;;;;;;;;;;;18.54;60.57;100456.53;5012424;28;1347;-69
2021/12/05 09:25:43;;;;;;;;;;;;;;;18.41;61.00;100451.47;5005724;28;1471;-64
2021/12/05 09:31:06;;;;;;;;;;;;;;;18.40;60.94;100440.91;4998108;28;1528;-76
2021/12/05 09:39:45;;;;;;;;;;;;;;;18.29;61.43;100413.28;5012800;28;1954;-76
2021/12/05 10:02:12;;;;;;;;;;;;;;;18.36;61.23;100402.84;5007506;28;1432;-73
2021/12/05 10:07:40;;;;;;;;;;;;;;;18.37;61.12;100390.34;5010849;28;1285;-75
2021/12/05 10:10:25;;;;;;;;;;;;;;;18.32;61.87;100392.56;5012660;28;1111;-64
2021/12/05 10:13:05;;;;;;;;;;;;;;;18.27;61.53;100388.50;4999553;28;1483;-64
2021/12/05 10:15:47;;;;;;;;;;;;;;;18.25;62.20;100374.41;5004217;28;1558;-70
2021/12/05 10:26:44;;;;;;;;;;;;;;;18.09;62.12;100384.81;5011690;28;1598;-69
2021/12/05 10:35:06;;;;;;;;;;;;;;;18.05;62.25;100392.28;5012684;28;1587;-65
2021/12/05 10:37:37;;;;;;;;;;;;;;;17.94;62.64;100389.69;5014806;28;1269;-63
2021/12/05 10:40:05;;;;;;;;;;;;;;;17.91;62.59;100383.81;5016465;28;1978;-69
2021/12/05 10:42:41;;;;;;;;;;;;;;;17.88;62.88;100382.22;5014864;28;1532;-66
2021/12/05 10:45:09;;;;;;;;;;;;;;;17.83;62.86;100374.63;5009677;28;1547;-64
2021/12/05 10:47:36;;;;;;;;;;;;;;;17.83;62.62;100365.72;5015458;28;1487;-62
2021/12/05 10:50:17;;;;;;;;;;;;;;;17.82;62.47;100359.50;5010533;28;1577;-62
2021/12/05 10:52:45;;;;;;;;;;;;;;;17.91;62.68;100359.72;5007121;28;1469;-65
2021/12/05 10:55:12;;;;;;;;;;;;;;;17.81;62.73;100359.69;5015259;28;1710;-67
2021/12/05 10:57:43;;;;;;;;;;;;;;;17.91;62.58;100351.72;5004942;28;1524;-62
2021/12/05 11:00:11;;;;;;;;;;;;;;;17.92;62.60;100374.78;5015394;28;1910;-61
2021/12/05 11:02:38;;;;;;;;;;;;;;;17.88;62.54;100331.41;5013779;28;1461;-69
2021/12/05 11:05:05;;;;;;;;;;;;;;;17.98;62.16;100334.09;5009823;28;1650;-68
2021/12/05 11:07:38;;;;;;;;;;;;;;;17.98;62.42;100326.06;5008387;28;1456;-66
2021/12/05 11:10:11;;;;;;;;;;;;;;;17.92;62.10;100348.88;5011932;28;1492;-60
2021/12/05 11:12:38;;;;;;;;;;;;;;;17.79;62.85;100327.72;5013648;28;1679;-65
2021/12/05 11:15:08;;;;;;;;;;;;;;;17.94;62.44;100319.31;5009906;28;1458;-65
2021/12/05 11:17:36;;;;;;;;;;;;;;;18.08;61.74;100324.25;5008474;28;1530;-64
2021/12/05 11:20:06;;;;;;;;;;;;;;;18.12;61.89;100322.13;5014377;28;1973;-74
2021/12/05 11:22:35;;;;;;;;;;;;;;;18.12;61.50;100322.13;5014154;28;1391;-71
2021/12/05 11:25:02;;;;;;;;;;;;;;;18.14;61.65;100337.06;5014235;28;1642;-65
2021/12/05 11:27:31;;;;;;;;;;;;;;;18.09;62.23;100340.16;5023535;28;1402;-79
2021/12/05 11:30:04;;;;;;;;;;;;;;;18.21;61.98;100332.84;5015417;28;1568;-67
2021/12/05 11:32:38;;;;;;;;;;;;;;;18.24;61.34;100321.88;5014979;28;1404;-65
2021/12/05 11:35:15;;;;;;;;;;;;;;;18.34;61.44;100323.69;5005725;28;1636;-68
2021/12/05 11:37:53;;;;;;;;;;;;;;;18.21;61.92;100319.47;5011880;28;1402;-66
2021/12/05 11:40:20;;;;;;;;;;;;;;;18.02;61.70;100317.63;5007226;28;1979;-71
2021/12/05 11:42:55;;;;;;;;;;;;;;;18.06;61.18;100315.50;5008711;28;1734;-64
2021/12/05 11:45:22;;;;;;;;;;;;;;;18.08;61.61;100306.38;5014244;28;1398;-64
2021/12/05 11:47:51;;;;;;;;;;;;;;;18.21;61.56;100290.03;5012092;28;1568;-66
2021/12/05 11:50:19;;;;;;;;;;;;;;;18.16;61.39;100286.06;5012043;28;1510;-68
2021/12/05 11:52:48;;;;;;;;;;;;;;;18.12;60.96;100285.50;5013412;28;1445;-67
2021/12/05 11:55:20;;;;;;;;;;;;;;;18.20;60.99;100284.81;5011823;28;1456;-74
2021/12/05 11:57:47;;;;;;;;;;;;;;;18.29;60.80;100270.59;5010081;28;1718;-66
2021/12/05 12:00:17;;;;;;;;;;;;;;;18.33;60.49;100271.97;5011802;28;1902;-69
2021/12/05 12:02:46;;;;;;;;;;;;;;;18.33;60.51;100260.44;5012408;28;1481;-69
2021/12/05 12:05:14;;;;;;;;;;;;;;;18.33;60.59;100263.94;5012862;28;1610;-70
2021/12/05 12:07:43;;;;;;;;;;;;;;;18.45;60.83;100253.94;5011094;28;1441;-68
2021/12/05 12:10:11;;;;;;;;;;;;;;;18.56;60.21;100252.91;5012805;28;1329;-71
2021/12/05 12:12:38;;;;;;;;;;;;;;;18.49;60.45;100236.59;5011173;28;1446;-69
2021/12/05 12:15:05;;;;;;;;;;;;;;;18.32;61.35;100264.09;5015062;28;1561;-69
2021/12/05 12:17:33;;;;;;;;;;;;;;;18.31;61.14;100238.31;5011319;28;1543;-68
2021/12/05 12:20:00;;;;;;;;;;;;;;;18.36;61.86;100268.16;5015427;28;1907;-68
2021/12/05 12:22:27;;;;;;;;;;;;;;;18.35;61.39;100247.75;5010536;28;1337;-67
2021/12/05 12:24:57;;;;;;;;;;;;;;;18.37;61.40;100230.56;5011769;28;1473;-68
2021/12/05 12:27:24;;;;;;;;;;;;;;;18.38;62.18;100226.03;5012072;28;1353;-69
2021/12/05 12:29:52;;;;;;;;;;;;;;;18.29;61.77;100235.78;5014323;28;1441;-68
2021/12/05 12:32:23;;;;;;;;;;;;;;;18.36;61.90;100238.72;5013676;28;1572;-65
2021/12/05 12:34:56;;;;;;;;;;;;;;;18.38;61.95;100245.63;5016489;28;1015;-68
2021/12/05 12:37:23;;;;;;;;;;;;;;;18.28;62.00;100242.13;5015213;28;1047;-73
2021/12/05 12:39:52;;;;;;;;;;;;;;;18.19;62.36;100262.56;5014990;28;1943;-68
2021/12/05 12:42:20;;;;;;;;;;;;;;;18.24;62.49;100271.03;5007096;28;1501;-67
2021/12/05 12:44:56;;;;;;;;;;;;;;;18.22;62.34;100269.44;5014035;28;1465;-77
2021/12/05 12:47:29;;;;;;;;;;;;;;;18.38;61.77;100274.22;5011089;28;1433;-68
2021/12/05 12:50:17;;;;;;;;;;;;;;;18.29;62.40;100281.28;5015061;28;977;-74
2021/12/05 12:52:55;;;;;;;;;;;;;;;18.30;62.15;100280.28;5013339;28;1563;-66
2021/12/05 12:55:22;;;;;;;;;;;;;;;18.29;62.47;100284.81;5014859;28;1047;-65
2021/12/05 12:57:49;;;;;;;;;;;;;;;18.33;62.50;100288.03;5015529;28;1573;-70
2021/12/05 13:00:16;;;;;;;;;;;;;;;18.36;62.24;100285.06;5016501;28;1975;-72
2021/12/05 13:02:57;;;;;;;;;;;;;;;18.30;61.95;100277.59;5014439;28;1594;-72
2021/12/05 13:05:42;;;;;;;;;;;;;;;18.24;62.42;100279.06;5015636;28;1443;-73
2021/12/05 13:10:58;;;;;;;;;;;;;;;18.15;62.85;100297.78;5015466;28;1630;-67
2021/12/05 13:13:28;;;;;;;;;;;;;;;18.12;62.49;100273.97;5016275;28;1520;-76
2021/12/05 13:15:59;;;;;;;;;;;;;;;18.18;62.48;100260.03;5015706;28;1626;-66
2021/12/05 13:18:29;;;;;;;;;;;;;;;18.21;62.68;100255.22;5016414;28;1504;-79
2021/12/05 13:21:06;;;;;;;;;;;;;;;18.19;62.65;100257.22;5016586;28;1905;-80
2021/12/05 13:23:43;;;;;;;;;;;;;;;18.25;61.96;100237.91;5014953;28;1441;-66
2021/12/05 13:26:23;;;;;;;;;;;;;;;18.39;62.13;100246.47;5008707;28;1172;-79
2021/12/05 13:28:50;;;;;;;;;;;;;;;18.38;61.58;100242.09;5012736;28;1758;-67
2021/12/05 13:31:41;;;;;;;;;;;;;;;18.49;61.57;100232.06;5016086;28;1774;-68
2021/12/05 13:34:31;;;;;;;;;;;;;;;18.48;61.61;100237.56;4996633;28;1924;-67
2021/12/05 13:37:00;;;;;;;;;;;;;;;18.55;61.26;100241.34;5015449;28;1655;-67
2021/12/05 13:39:31;;;;;;;;;;;;;;;18.44;61.62;100262.94;5015658;28;1910;-65
2021/12/05 13:42:02;;;;;;;;;;;;;;;18.28;62.08;100242.97;5010247;28;1482;-76
2021/12/05 13:44:43;;;;;;;;;;;;;;;18.18;62.20;100235.94;5009832;28;1394;-66
2021/12/05 13:47:15;;;;;;;;;;;;;;;18.37;61.84;100241.25;5005898;28;1427;-65
2021/12/05 13:49:42;;;;;;;;;;;;;;;18.58;61.15;100243.75;5014038;28;1545;-75
2021/12/05 13:52:39;;;;;;;;;;;;;;;18.77;60.60;100233.97;5015179;28;1435;-79
2021/12/05 13:55:25;;;;;;;;;;;;;;;18.49;61.10;100228.56;4954414;29;1613;-73
2021/12/05 13:58:07;;;;;;;;;;;;;;;18.35;61.54;100234.38;5005853;28;1576;-77
2021/12/05 14:00:45;;;;;;;;;;;;;;;18.40;62.31;100229.41;5008780;28;1906;-70
2021/12/05 14:03:12;;;;;;;;;;;;;;;18.42;61.91;100238.13;5012714;28;1475;-69
2021/12/05 14:05:46;;;;;;;;;;;;;;;18.55;62.93;100233.31;5013632;28;1474;-69
2021/12/05 14:08:13;;;;;;;;;;;;;;;18.41;62.74;100229.28;5006291;28;1678;-76
2021/12/05 14:10:43;;;;;;;;;;;;;;;18.47;62.90;100236.72;5006217;28;1406;-75
2021/12/05 14:13:10;;;;;;;;;;;;;;;18.52;63.51;100246.16;5011619;28;1548;-71
2021/12/05 14:15:36;;;;;;;;;;;;;;;18.45;63.04;100251.25;5013717;28;1508;-72
2021/12/05 14:18:04;;;;;;;;;;;;;;;18.45;63.83;100241.38;5013993;28;1473;-78
2021/12/05 14:20:31;;;;;;;;;;;;;;;18.37;64.06;100251.13;5015710;28;1910;-72
2021/12/05 14:23:04;;;;;;;;;;;;;;;18.53;63.07;100245.19;5014789;28;1505;-70
2021/12/05 14:25:32;;;;;;;;;;;;;;;18.45;63.46;100244.06;5015853;28;1119;-70
2021/12/05 14:28:02;;;;;;;;;;;;;;;18.57;63.34;100260.81;5011432;28;1465;-70
2021/12/05 14:30:30;;;;;;;;;;;;;;;18.78;63.36;100254.38;5014538;28;1499;-72
2021/12/05 14:32:59;;;;;;;;;;;;;;;18.75;62.79;100266.25;5014133;28;1497;-72
2021/12/05 14:35:29;;;;;;;;;;;;;;;18.61;63.27;100262.19;5014545;28;1488;-74
2021/12/05 14:37:56;;;;;;;;;;;;;;;18.52;63.83;100255.03;5011868;28;1583;-69
2021/12/05 14:40:25;;;;;;;;;;;;;;;18.48;63.70;100278.59;5016110;28;1906;-71
2021/12/05 14:42:52;;;;;;;;;;;;;;;18.39;64.41;100270.56;5015590;28;1591;-68
2021/12/05 14:45:21;;;;;;;;;;;;;;;18.49;64.34;100282.09;5014956;28;1576;-68
2021/12/05 14:47:48;;;;;;;;;;;;;;;18.39;64.27;100276.75;5015768;28;1493;-81
2021/12/05 14:50:17;;;;;;;;;;;;;;;18.36;64.73;100278.88;5013590;28;1410;-77
2021/12/05 14:52:48;;;;;;;;;;;;;;;18.44;64.02;100269.16;5015015;28;1489;-77
2021/12/05 14:55:15;;;;;;;;;;;;;;;18.43;64.11;100258.59;5013466;28;1182;-66
2021/12/05 14:57:43;;;;;;;;;;;;;;;18.49;64.43;100260.69;5015750;28;1363;-73
2021/12/05 15:00:24;;;;;;;;;;;;;;;18.41;64.93;100269.44;5015221;28;1906;-80
2021/12/05 15:03:03;;;;;;;;;;;;;;;18.44;64.18;100263.81;5013386;28;1503;-83
2021/12/05 15:05:30;;;;;;;;;;;;;;;18.47;64.38;100278.72;5013362;28;1524;-81
2021/12/05 15:08:01;;;;;;;;;;;;;;;18.42;64.04;100263.09;5010835;28;1398;-73
2021/12/05 15:10:28;;;;;;;;;;;;;;;18.47;64.04;100268.84;5013048;28;1469;-68
2021/12/05 15:12:55;;;;;;;;;;;;;;;18.55;63.47;100276.16;5013008;28;1524;-74
2021/12/05 15:15:22;;;;;;;;;;;;;;;18.55;64.01;100273.50;5013882;28;1514;-73
2021/12/05 15:17:51;;;;;;;;;;;;;;;18.76;63.04;100269.75;5013089;28;1582;-76
2021/12/05 15:20:19;;;;;;;;;;;;;;;18.71;63.16;100264.00;5018386;28;1967;-76
2021/12/05 15:22:47;;;;;;;;;;;;;;;18.90;62.52;100269.34;5015753;28;1473;-75
2021/12/05 15:25:18;;;;;;;;;;;;;;;18.73;63.66;100262.88;5025371;28;1122;-75
2021/12/05 15:27:47;;;;;;;;;;;;;;;18.80;62.90;100271.19;5017699;28;1455;-74
2021/12/05 15:30:18;;;;;;;;;;;;;;;18.57;63.79;100270.66;5014594;28;1465;-78
2021/12/05 15:32:45;;;;;;;;;;;;;;;18.46;64.10;100272.53;5015474;28;1595;-76
2021/12/05 15:35:16;;;;;;;;;;;;;;;18.59;64.16;100288.28;5011161;28;1302;-73
2021/12/05 15:37:47;;;;;;;;;;;;;;;18.35;63.67;100279.88;5012509;28;1492;-69
2021/12/05 15:40:13;;;;;;;;;;;;;;;18.43;64.37;100274.66;5015598;28;1915;-67
2021/12/05 15:42:41;;;;;;;;;;;;;;;18.47;64.17;100289.44;5016987;28;1528;-70
2021/12/05 15:45:10;;;;;;;;;;;;;;;18.63;63.87;100281.63;5017534;28;1634;-69
2021/12/05 15:47:38;;;;;;;;;;;;;;;18.51;64.97;100268.56;5015168;28;1489;-70
2021/12/05 15:50:12;;;;;;;;;;;;;;;18.52;65.71;100281.78;5016714;28;1569;-71
2021/12/05 15:52:40;;;;;;;;;;;;;;;18.45;66.06;100270.00;5015213;28;1579;-72
2021/12/05 15:55:09;;;;;;;;;;;;;;;18.31;66.22;100265.09;5012319;28;1331;-68
2021/12/05 15:57:38;;;;;;;;;;;;;;;18.33;65.74;100265.78;5010090;28;1371;-71
2021/12/05 16:00:11;;;;;;;;;;;;;;;18.26;66.45;100257.47;5014455;28;1977;-65
2021/12/05 16:02:39;;;;;;;;;;;;;;;18.56;66.42;100287.72;5010130;28;1438;-71
2021/12/05 16:05:13;;;;;;;;;;;;;;;18.50;65.98;100273.06;5013109;28;1453;-67
2021/12/05 16:07:40;;;;;;;;;;;;;;;18.65;66.10;100276.16;5013802;28;1378;-67
2021/12/05 16:10:12;;;;;;;;;;;;;;;18.80;65.45;100274.72;5015480;28;1194;-70
2021/12/05 16:12:41;;;;;;;;;;;;;;;18.71;65.59;100277.41;5015779;28;1769;-66
2021/12/05 16:15:10;;;;;;;;;;;;;;;18.70;66.40;100268.50;5011760;28;1477;-63
2021/12/05 16:17:37;;;;;;;;;;;;;;;18.51;67.19;100274.78;5010928;28;1613;-74
2021/12/05 16:20:19;;;;;;;;;;;;;;;18.65;67.25;100268.13;5012781;28;1971;-65
2021/12/05 16:23:06;;;;;;;;;;;;;;;18.72;66.89;100276.41;5011405;28;1465;-67
2021/12/05 16:25:33;;;;;;;;;;;;;;;18.66;67.08;100267.97;5014819;28;1178;-69
2021/12/05 16:28:02;;;;;;;;;;;;;;;18.74;66.60;100267.25;5010978;28;1430;-69
2021/12/05 16:30:32;;;;;;;;;;;;;;;18.71;67.63;100280.09;5012716;28;1477;-68
2021/12/05 16:32:59;;;;;;;;;;;;;;;18.66;66.93;100251.91;5013324;28;1466;-67
2021/12/05 16:35:27;;;;;;;;;;;;;;;18.79;67.65;100275.69;5014937;28;1406;-69
2021/12/05 16:37:53;;;;;;;;;;;;;;;18.82;67.13;100283.47;5013406;28;1426;-61
2021/12/05 16:40:20;;;;;;;;;;;;;;;18.86;67.44;100278.63;5016833;28;1953;-67
2021/12/05 16:42:47;;;;;;;;;;;;;;;18.66;67.81;100288.53;5002871;28;1519;-64
2021/12/05 16:45:13;;;;;;;;;;;;;;;18.61;67.92;100291.66;5010655;28;1395;-69
2021/12/05 16:47:44;;;;;;;;;;;;;;;18.94;67.55;100288.63;5015868;28;1469;-71
2021/12/05 16:50:13;;;;;;;;;;;;;;;18.81;67.78;100291.63;5013768;28;1480;-72
2021/12/05 16:52:45;;;;;;;;;;;;;;;18.92;67.57;100279.88;5015078;28;1445;-65
2021/12/05 16:55:21;;;;;;;;;;;;;;;18.92;67.59;100267.34;5010993;28;1253;-65
2021/12/05 16:57:56;;;;;;;;;;;;;;;19.13;67.17;100272.47;5014132;28;1520;-67
2021/12/05 17:00:25;;;;;;;;;;;;;;;18.94;67.36;100270.72;5016354;28;1903;-77
2021/12/05 17:02:54;;;;;;;;;;;;;;;18.98;67.24;100279.28;5012156;28;1478;-66
2021/12/05 17:05:23;;;;;;;;;;;;;;;18.81;68.07;100297.00;5012169;28;1445;-68
2021/12/05 17:07:56;;;;;;;;;;;;;;;18.92;68.52;100272.72;5015565;28;1517;-69
2021/12/05 17:10:34;;;;;;;;;;;;;;;18.91;68.01;100254.09;5012823;28;1177;-64
2021/12/05 17:13:07;;;;;;;;;;;;;;;18.92;68.96;100270.03;5015940;28;1730;-69
2021/12/05 17:15:34;;;;;;;;;;;;;;;18.95;68.98;100261.69;5007609;28;1666;-69